Time;durP1;ratioP1;P1;durP2;ratioP2;P2;SDS_P1;SDS_P2;PMS_P1;PMS_P2;Temp;Humidity;BMP_temperature;BMP_pressure;BME280_temperature;BME280_humidity;BME280_pressure;Samples;Min_cycle;Max_cycle;Signal;HPM_P1;HPM_P2
2022/11/20 00:01:51;;;;;;;3.93;2.13;;;;;;;;;;21026828;28;20216;-63
2022/11/20 00:11:53;;;;;;;4.20;2.77;;;;;;;;;;21000769;28;20585;-63
2022/11/20 00:21:55;;;;;;;2.57;1.70;;;;;;;;;;21016435;28;20592;-63
2022/11/20 00:31:57;;;;;;;3.43;2.00;;;;;;;;;;21016585;28;20277;-63
2022/11/20 00:41:59;;;;;;;3.17;2.00;;;;;;;;;;21016692;28;20723;-63
2022/11/20 00:52:01;;;;;;;2.83;1.90;;;;;;;;;;21014977;28;20277;-63
2022/11/20 01:02:03;;;;;;;3.47;2.33;;;;;;;;;;21050370;28;20224;-63
2022/11/20 01:12:05;;;;;;;2.53;1.70;;;;;;;;;;21028993;28;20224;-63
2022/11/20 01:22:07;;;;;;;4.23;2.67;;;;;;;;;;21028115;28;20649;-63
2022/11/20 01:32:09;;;;;;;4.60;2.57;;;;;;;;;;21044730;28;20296;-63
2022/11/20 01:52:38;;;;;;;2.53;1.40;;;;;;;;;;21028888;28;20220;-63
2022/11/20 02:02:42;;;;;;;2.83;2.10;;;4.90;99.90;;;;;;21025185;28;20213;-63
2022/11/20 02:23:15;;;;;;;2.80;1.70;;;5.10;99.90;;;;;;21026845;28;20220;-63
2022/11/20 02:33:17;;;;;;;3.73;1.77;;;;;;;;;;21039441;28;20216;-63
2022/11/20 02:43:19;;;;;;;2.83;1.37;;;;;;;;;;21005824;28;20581;-63
2022/11/20 02:53:21;;;;;;;2.93;1.60;;;;;;;;;;21021781;28;20240;-63
2022/11/20 03:03:23;;;;;;;3.23;1.77;;;;;;;;;;21037005;28;20262;-63
2022/11/20 03:13:25;;;;;;;3.60;2.10;;;5.10;99.90;;;;;;21003422;28;20216;-63
2022/11/20 03:23:29;;;;;;;3.53;2.13;;;;;;;;;;21036047;28;20291;-63
2022/11/20 03:33:31;;;;;;;3.90;2.50;;;;;;;;;;21019111;28;20216;-62
2022/11/20 03:43:33;;;;;;;4.33;2.53;;;;;;;;;;21034318;28;20224;-63
2022/11/20 03:53:35;;;;;;;2.57;1.67;;;;;;;;;;21002369;28;20580;-63
2022/11/20 04:03:38;;;;;;;3.40;2.20;;;4.80;99.90;;;;;;21034303;28;20629;-63
2022/11/20 04:13:41;;;;;;;3.60;2.07;;;;;;;;;;21011156;28;20707;-63
2022/11/20 04:23:42;;;;;;;3.47;1.73;;;;;;;;;;21012354;22;20285;-65
2022/11/20 04:33:45;;;;;;;3.23;1.83;;;4.70;99.90;;;;;;21080874;28;20600;-67
2022/11/20 04:43:48;;;;;;;3.50;2.13;;;4.70;99.90;;;;;;21081064;28;20204;-64
2022/11/20 04:53:50;;;;;;;2.87;1.60;;;;;;;;;;21082107;28;20213;-65
2022/11/20 05:03:51;;;;;;;2.93;1.70;;;4.70;99.90;;;;;;21072081;28;20220;-65
2022/11/20 05:13:53;;;;;;;2.07;1.33;;;;;;;;;;21077303;28;20216;-65
2022/11/20 05:23:55;;;;;;;2.73;1.53;;;;;;;;;;21075962;28;20683;-65
2022/11/20 05:33:57;;;;;;;2.40;1.50;;;4.90;99.90;;;;;;21076528;28;20216;-65
2022/11/20 05:43:59;;;;;;;2.23;1.50;;;;;;;;;;21075159;28;20614;-65
2022/11/20 05:54:00;;;;;;;3.63;1.63;;;;;;;;;;21073414;28;20240;-65
2022/11/20 06:04:02;;;;;;;4.23;2.00;;;;;;;;;;21073776;28;20257;-65
2022/11/20 06:14:04;;;;;;;2.37;1.30;;;;;;;;;;21072589;28;20278;-68
2022/11/20 06:24:06;;;;;;;2.50;1.47;;;;;;;;;;21071981;28;20305;-66
2022/11/20 06:34:08;;;;;;;1.93;1.23;;;;;;;;;;21071516;28;20219;-68
2022/11/20 06:44:10;;;;;;;1.90;1.03;;;;;;;;;;21039180;28;20201;-67
2022/11/20 06:54:12;;;;;;;3.27;1.87;;;;;;;;;;20985773;28;20212;-67
2022/11/20 07:04:14;;;;;;;2.97;1.90;;;;;;;;;;20983841;28;20251;-67
2022/11/20 07:14:16;;;;;;;4.13;2.43;;;;;;;;;;20985966;28;20233;-68
2022/11/20 07:24:18;;;;;;;3.50;2.17;;;;;;;;;;21040150;28;20262;-68
2022/11/20 07:34:20;;;;;;;3.80;2.43;;;;;;;;;;21060542;28;20285;-67
2022/11/20 07:44:22;;;;;;;4.03;2.33;;;;;;;;;;21064955;28;20224;-66
2022/11/20 07:54:24;;;;;;;2.83;1.83;;;;;;;;;;21048590;28;20780;-66
2022/11/20 08:04:26;;;;;;;3.63;2.33;;;;;;;;;;21077191;28;20212;-67
2022/11/20 08:14:28;;;;;;;2.60;1.77;;;;;;;;;;21083905;28;20767;-68
2022/11/20 08:24:30;;;;;;;3.37;2.30;;;;;;;;;;21071445;28;20305;-67
2022/11/20 08:34:33;;;;;;;3.80;2.63;;;;;;;;;;21075330;28;20286;-68
2022/11/20 08:44:34;;;;;;;3.80;2.33;;;;;;;;;;21063148;28;20265;-67
2022/11/20 08:54:36;;;;;;;3.27;2.27;;;;;;;;;;21080757;28;20285;-67
2022/11/20 09:04:38;;;;;;;3.30;2.40;;;;;;;;;;21079799;28;20196;-66
2022/11/20 09:14:40;;;;;;;4.23;2.67;;;;;;;;;;21076705;28;20698;-68
2022/11/20 09:24:42;;;;;;;3.77;2.40;;;;;;;;;;21078905;28;20212;-68
2022/11/20 09:34:44;;;;;;;4.83;2.53;;;;;;;;;;21066787;28;20208;-67
2022/11/20 09:45:05;;;;;;;3.73;2.20;;;;;;;;;;21074642;28;20204;-67
2022/11/20 09:55:09;;;;;;;4.53;2.73;;;;;;;;;;21074161;28;20216;-68
2022/11/20 10:05:28;;;;;;;4.33;2.33;;;5.70;99.90;;;;;;21036023;28;20214;-66
2022/11/20 10:15:38;;;;;;;4.50;2.40;;;;;;;;;;21056598;28;20236;-66
2022/11/20 10:25:43;;;;;;;3.60;2.80;;;;;;;;;;21084941;22;20220;-63
2022/11/20 10:35:49;;;;;;;4.47;2.23;;;;;;;;;;20971871;28;20217;-63
2022/11/20 10:46:03;;;;;;;3.97;1.87;;;;;;;;;;20972421;28;20216;-63
2022/11/20 10:56:08;;;;;;;3.40;2.37;;;;;;;;;;20955251;28;20208;-63
2022/11/20 11:06:16;;;;;;;2.57;2.03;;;;;;;;;;20954065;28;20278;-63
2022/11/20 11:16:22;;;;;;;3.70;2.30;;;;;;;;;;20954034;28;20494;-64
2022/11/20 11:26:25;;;;;;;2.63;1.50;;;;;;;;;;20937280;28;20703;-62
2022/11/20 11:36:27;;;;;;;0.63;0.40;;;;;;;;;;20952058;28;20270;-62
2022/11/20 11:46:29;;;;;;;0.47;0.23;;;;;;;;;;20952325;28;20252;-62
2022/11/20 11:56:33;;;;;;;0.40;0.30;;;;;;;;;;20967551;28;20282;-62
2022/11/20 12:06:37;;;;;;;0.40;0.33;;;7.50;99.90;;;;;;20951741;28;20221;-62
2022/11/20 12:16:39;;;;;;;2.30;0.30;;;7.50;99.90;;;;;;20934487;28;20298;-62
2022/11/20 12:26:44;;;;;;;0.83;0.30;;;;;;;;;;20950696;28;20221;-62
2022/11/20 12:36:59;;;;;;;0.20;0.20;;;7.60;99.90;;;;;;20949991;28;20290;-62
2022/11/20 12:47:34;;;;;;;0.33;0.33;;;7.70;99.90;;;;;;20953477;28;20278;-63
2022/11/20 12:57:36;;;;;;;2.23;0.50;;;;;;;;;;20964571;28;20217;-63
2022/11/20 13:07:38;;;;;;;3.33;0.53;;;7.70;99.90;;;;;;20963653;28;20270;-63
2022/11/20 13:17:52;;;;;;;0.57;0.40;;;;;;;;;;20958816;28;20274;-63
2022/11/20 13:27:55;;;;;;;1.83;0.40;;;;;;;;;;21017928;28;20241;-63
2022/11/20 13:38:15;;;;;;;0.67;0.30;;;;;;;;;;20986064;28;20588;-63
2022/11/20 13:48:21;;;;;;;1.60;0.63;;;;;;;;;;20944524;28;20239;-63
2022/11/20 13:59:02;;;;;;;0.53;0.20;;;7.50;99.90;;;;;;21020575;28;20277;-63
2022/11/20 14:09:04;;;;;;;1.23;0.50;;;;;;;;;;21008632;28;20211;-62
2022/11/20 14:19:21;;;;;;;0.43;0.33;;;;;;;;;;20966208;28;20254;-63
2022/11/20 14:29:27;;;;;;;1.43;0.17;;;;;;;;;;21040995;28;20285;-63
2022/11/20 14:39:36;;;;;;;0.50;0.30;;;;;;;;;;21056093;28;20274;-63
2022/11/20 14:49:39;;;;;;;0.63;0.40;;;;;;;;;;21039606;28;20208;-63
2022/11/20 14:59:41;;;;;;;0.40;0.20;;;;;;;;;;21005772;28;20201;-63
2022/11/20 15:09:43;;;;;;;0.30;0.10;;;;;;;;;;20953277;28;20205;-63
2022/11/20 15:19:46;;;;;;;0.23;0.10;;;;;;;;;;20953473;28;20290;-64
2022/11/20 15:29:48;;;;;;;1.47;0.40;;;7.20;99.90;;;;;;20932895;28;20626;-62
2022/11/20 15:39:50;;;;;;;0.33;0.30;;;;;;;;;;20967042;28;20699;-64
2022/11/20 15:49:52;;;;;;;1.33;0.30;;;;;;;;;;20961911;28;20229;-64
2022/11/20 15:59:55;;;;;;;0.83;0.10;;;6.70;99.90;;;;;;20992454;28;20209;-64
2022/11/20 16:09:57;;;;;;;0.60;0.20;;;;;;;;;;20949352;28;20229;-63
2022/11/20 16:20:00;;;;;;;0.73;0.30;;;;;;;;;;20935392;28;20236;-63
2022/11/20 16:30:02;;;;;;;3.80;0.20;;;;;;;;;;20999239;28;20318;-63
2022/11/20 16:40:04;;;;;;;0.57;0.40;;;7.90;99.90;;;;;;20948000;28;20207;-63
2022/11/20 16:50:06;;;;;;;1.57;0.60;;;7.20;99.90;;;;;;20961849;28;20229;-62
2022/11/20 17:00:09;;;;;;;1.37;0.40;;;;;;;;;;20943798;28;20217;-63
2022/11/20 17:10:11;;;;;;;0.30;0.23;;;;;;;;;;20997810;28;20221;-63
2022/11/20 17:20:13;;;;;;;1.80;0.60;;;;;;;;;;20968343;28;20704;-63
2022/11/20 17:30:15;;;;;;;0.30;0.20;;;;;;;;;;21007950;28;20221;-63
2022/11/20 17:40:17;;;;;;;0.77;0.50;;;;;;;;;;21017161;28;20266;-62
2022/11/20 17:50:19;;;;;;;0.10;0.10;;;;;;;;;;21044344;28;20220;-64
2022/11/20 18:00:21;;;;;;;0.93;0.37;;;;;;;;;;21012937;28;20209;-62
2022/11/20 18:10:22;;;;;;;0.50;0.27;;;;;;;;;;20997250;28;20297;-63
2022/11/20 18:20:24;;;;;;;0.37;0.33;;;;;;;;;;21025150;28;20302;-63
2022/11/20 18:30:26;;;;;;;0.10;0.10;;;;;;;;;;20980071;28;20216;-63
2022/11/20 18:40:29;;;;;;;0.50;0.20;;;;;;;;;;20956880;28;20221;-63
2022/11/20 18:50:31;;;;;;;0.70;0.30;;;;;;;;;;20938982;28;20213;-63
2022/11/20 19:00:33;;;;;;;1.50;0.30;;;;;;;;;;20970723;28;20245;-62
2022/11/20 19:10:36;;;;;;;1.87;0.50;;;8.10;99.90;;;;;;21011593;28;20773;-65
2022/11/20 19:20:38;;;;;;;0.50;0.20;;;;;;;;;;20964074;28;20259;-64
2022/11/20 19:30:40;;;;;;;0.67;0.43;;;6.70;99.90;;;;;;20937096;28;20278;-63
2022/11/20 19:40:44;;;;;;;0.10;0.10;;;;;;;;;;20924123;28;20243;-64
2022/11/20 19:50:47;;;;;;;0.20;0.10;;;;;;;;;;20938098;28;20217;-64
2022/11/20 20:00:49;;;;;;;0.40;0.17;;;;;;;;;;20984765;28;20286;-63
2022/11/20 20:10:52;;;;;;;0.93;0.30;;;;;;;;;;20969387;28;20228;-64
2022/11/20 20:20:54;;;;;;;0.50;0.20;;;;;;;;;;20970705;28;20789;-64
2022/11/20 20:30:56;;;;;;;0.27;0.20;;;;;;;;;;20993224;28;20293;-63
2022/11/20 20:40:58;;;;;;;0.40;0.20;;;;;;;;;;21072930;28;20224;-63
2022/11/20 20:51:01;;;;;;;0.20;0.10;;;6.60;99.90;;;;;;21077172;28;20579;-63
2022/11/20 21:01:06;;;;;;;0.17;0.10;;;6.40;99.90;;;;;;21075730;28;20297;-64
2022/11/20 21:11:10;;;;;;;0.30;0.30;;;;;;;;;;21044678;28;20305;-64
2022/11/20 21:31:36;;;;;;;0.83;0.20;;;;;;;;;;20930812;22;20609;-65
2022/11/20 21:41:38;;;;;;;2.33;0.50;;;;;;;;;;20907007;28;20202;-66
2022/11/20 21:51:40;;;;;;;0.33;0.30;;;;;;;;;;20894450;28;20275;-65
2022/11/20 22:01:42;;;;;;;0.20;0.20;;;;;;;;;;20889467;28;20271;-66
2022/11/20 22:11:44;;;;;;;0.93;0.50;;;;;;;;;;20909071;28;20627;-66
2022/11/20 22:21:46;;;;;;;0.10;0.10;;;;;;;;;;20907613;28;20225;-66
2022/11/20 22:31:47;;;;;;;0.23;0.20;;;;;;;;;;20906432;28;20214;-66
2022/11/20 22:41:49;;;;;;;0.47;0.30;;;;;;;;;;20903938;28;20770;-66
2022/11/20 22:51:51;;;;;;;0.10;0.10;;;;;;;;;;20905601;28;20218;-66
2022/11/20 23:01:53;;;;;;;1.30;0.30;;;;;;;;;;20904563;28;20271;-66
2022/11/20 23:11:55;;;;;;;0.60;0.30;;;;;;;;;;20902249;28;20233;-67
2022/11/20 23:21:57;;;;;;;1.77;0.70;;;;;;;;;;20903077;28;20221;-66
2022/11/20 23:31:59;;;;;;;0.20;0.20;;;;;;;;;;20901646;28;20218;-66
2022/11/20 23:42:01;;;;;;;1.30;0.47;;;;;;;;;;20899186;28;20287;-66
2022/11/20 23:52:02;;;;;;;0.40;0.20;;;;;;;;;;20901093;28;20218;-66
